Marcola, Oregon
Current Conditions -  °F | °C
As of 1:54 PM on Sunday 23 Nov 2014 (Local Time) from KEUG Reporting Station
Broken Clouds Broken Clouds  
Wind Chill: 56°   Ceiling: 5500
Heat Index: 56°   Visibility: 10mi
Dew Point: 45°   Wind: 14mph
Humidity: 67%   Direction: 180°S
Pressure: 30.33"   Gusts: NA
Location:  44.17°N, 122.86°W
Report Text: KEUG 232154Z 18012KT 10SM SCT031 BKN055 BKN200 13/07 A3033 RMK AO2 SLP271 T01330072
Loading
Personal Weather Stations






























Interactive Weather Map New forecast layout! Learn more

10-Day Weather Forecast

Advertisements
Track Severe Weather on mobile